createdAt,value
2023-05-09T00:00:47.211Z,38.93
2023-05-09T00:01:47.238Z,38.96
2023-05-09T00:02:47.252Z,38.96
2023-05-09T00:03:47.343Z,38.96
2023-05-09T00:04:47.375Z,38.96
2023-05-09T00:05:47.317Z,38.96
2023-05-09T00:06:47.329Z,38.98
2023-05-09T00:07:47.330Z,38.96
2023-05-09T00:08:47.345Z,38.95
2023-05-09T00:09:47.372Z,38.93
2023-05-09T00:10:47.405Z,38.94
2023-05-09T00:11:47.395Z,38.99
2023-05-09T00:12:47.456Z,38.95
2023-05-09T00:13:47.425Z,38.95
2023-05-09T00:14:47.443Z,38.95
2023-05-09T00:15:47.455Z,38.96
2023-05-09T00:16:47.543Z,38.94
2023-05-09T00:17:47.482Z,38.96
2023-05-09T00:18:47.546Z,38.93
2023-05-09T00:19:47.587Z,38.92
2023-05-09T00:20:47.532Z,38.95
2023-05-09T00:21:47.537Z,38.93
2023-05-09T00:22:47.547Z,38.94
2023-05-09T00:23:47.538Z,38.92
2023-05-09T00:24:47.556Z,38.92
2023-05-09T00:25:47.546Z,38.93
2023-05-09T00:26:47.583Z,38.90
2023-05-09T00:27:47.576Z,38.87
2023-05-09T00:28:47.593Z,38.86
2023-05-09T00:29:47.627Z,38.87
2023-05-09T00:30:47.623Z,38.86
2023-05-09T00:31:47.666Z,38.87
2023-05-09T00:32:47.670Z,38.85
2023-05-09T00:33:47.648Z,38.86
2023-05-09T00:34:47.881Z,38.85
2023-05-09T00:35:47.792Z,38.85
2023-05-09T00:36:47.713Z,38.82
2023-05-09T00:37:47.701Z,38.82
2023-05-09T00:38:47.719Z,38.81
2023-05-09T00:39:47.727Z,38.84
2023-05-09T00:40:47.783Z,38.80
2023-05-09T00:41:47.765Z,38.81
2023-05-09T00:42:47.799Z,38.79
2023-05-09T00:43:47.781Z,38.80
2023-05-09T00:44:47.824Z,38.76
2023-05-09T00:45:47.830Z,38.77
2023-05-09T00:46:47.838Z,38.76
2023-05-09T00:47:47.940Z,38.76
2023-05-09T00:48:47.854Z,38.76
2023-05-09T00:49:47.885Z,38.74
2023-05-09T00:50:47.869Z,38.75
2023-05-09T00:51:48.052Z,38.76
2023-05-09T00:52:47.915Z,38.74
2023-05-09T00:53:47.915Z,38.74
2023-05-09T00:54:47.945Z,38.71
2023-05-09T00:55:47.969Z,38.74
2023-05-09T00:56:47.964Z,38.72
2023-05-09T00:57:47.972Z,38.75
2023-05-09T00:58:48.001Z,38.73
2023-05-09T00:59:48.004Z,38.72
2023-05-09T01:00:48.023Z,38.74
2023-05-09T01:01:48.106Z,38.74
2023-05-09T01:02:48.134Z,38.75
2023-05-09T01:03:48.107Z,38.71
2023-05-09T01:04:48.058Z,38.73
2023-05-09T01:05:48.063Z,38.73
2023-05-09T01:06:48.089Z,38.72
2023-05-09T01:07:48.199Z,38.74
2023-05-09T01:08:48.096Z,38.73
2023-05-09T01:09:48.097Z,38.72
2023-05-09T01:10:48.142Z,38.74
2023-05-09T01:11:48.143Z,38.72
2023-05-09T01:12:48.223Z,38.72
2023-05-09T01:13:48.922Z,38.74
2023-05-09T01:14:48.218Z,38.72
2023-05-09T01:15:48.231Z,38.73
2023-05-09T01:16:48.226Z,38.72
2023-05-09T01:17:48.244Z,38.74
2023-05-09T01:18:48.223Z,38.71
2023-05-09T01:19:48.239Z,38.73
2023-05-09T01:20:48.269Z,38.72
2023-05-09T01:21:48.275Z,38.71
2023-05-09T01:22:48.269Z,38.71
2023-05-09T01:23:48.377Z,38.73
2023-05-09T01:24:48.332Z,38.75
2023-05-09T01:25:48.327Z,38.74
2023-05-09T01:26:48.361Z,38.72
2023-05-09T01:27:48.321Z,38.71
2023-05-09T01:28:48.360Z,38.73
2023-05-09T01:29:48.406Z,38.71
2023-05-09T01:30:48.386Z,38.72
2023-05-09T01:31:48.466Z,38.69
2023-05-09T01:32:48.388Z,38.69
2023-05-09T01:33:48.388Z,38.72
2023-05-09T01:34:48.431Z,38.70
2023-05-09T01:35:48.453Z,38.74
2023-05-09T01:36:48.446Z,38.72
2023-05-09T01:37:48.464Z,38.71
2023-05-09T01:38:48.493Z,38.72
2023-05-09T01:39:48.591Z,38.71
2023-05-09T01:40:48.508Z,38.71
2023-05-09T01:41:48.580Z,38.72
2023-05-09T01:42:48.534Z,38.69
2023-05-09T01:43:48.620Z,38.75
2023-05-09T01:44:48.574Z,38.71
2023-05-09T01:45:48.561Z,38.73
2023-05-09T01:46:48.668Z,38.70
2023-05-09T01:47:48.640Z,38.70
2023-05-09T01:48:48.589Z,38.72
2023-05-09T01:49:48.938Z,38.69
2023-05-09T01:50:48.661Z,38.71
2023-05-09T01:51:48.642Z,38.69
2023-05-09T01:52:48.644Z,38.71
2023-05-09T01:53:48.647Z,38.71
2023-05-09T01:54:48.682Z,38.66
2023-05-09T01:55:48.785Z,38.69
2023-05-09T01:56:48.707Z,38.68
2023-05-09T01:57:48.710Z,38.67
2023-05-09T01:58:48.736Z,38.66
2023-05-09T01:59:48.737Z,38.69
2023-05-09T02:00:48.794Z,38.68
2023-05-09T02:01:48.806Z,38.67
2023-05-09T02:02:48.985Z,38.68
2023-05-09T02:03:48.778Z,38.69
2023-05-09T02:04:48.805Z,38.66
2023-05-09T02:05:48.780Z,38.63
2023-05-09T02:06:48.797Z,38.68
2023-05-09T02:07:48.812Z,38.66
2023-05-09T02:08:48.786Z,38.68
2023-05-09T02:09:48.820Z,38.69
2023-05-09T02:10:48.800Z,38.68
2023-05-09T02:11:48.904Z,38.68
2023-05-09T02:12:48.800Z,38.68
2023-05-09T02:13:48.780Z,38.66
2023-05-09T02:14:48.791Z,38.67
2023-05-09T02:15:48.793Z,38.71
2023-05-09T02:16:48.844Z,38.67
2023-05-09T02:17:48.799Z,38.68
2023-05-09T02:18:48.769Z,38.67
2023-05-09T02:19:48.780Z,38.72
2023-05-09T02:20:48.811Z,38.68
2023-05-09T02:21:48.774Z,38.68
2023-05-09T02:22:48.752Z,38.66
2023-05-09T02:23:48.766Z,38.71
2023-05-09T02:24:48.749Z,38.69
2023-05-09T02:25:48.762Z,38.69
2023-05-09T02:26:48.765Z,38.67
2023-05-09T02:27:48.805Z,38.69
2023-05-09T02:28:48.761Z,38.67
2023-05-09T02:29:48.788Z,38.66
2023-05-09T02:30:48.782Z,38.64
2023-05-09T02:31:48.835Z,38.66
2023-05-09T02:32:48.926Z,38.66
2023-05-09T02:33:48.796Z,38.61
2023-05-09T02:34:48.812Z,38.65
2023-05-09T02:35:48.775Z,38.64
2023-05-09T02:36:48.782Z,38.62
2023-05-09T02:37:48.813Z,38.63
2023-05-09T02:38:48.802Z,38.61
2023-05-09T02:39:48.835Z,38.63
2023-05-09T02:40:50.947Z,38.64
2023-05-09T02:41:48.763Z,38.63
2023-05-09T02:42:48.774Z,38.60
2023-05-09T02:43:48.861Z,38.63
2023-05-09T02:44:48.738Z,38.60
2023-05-09T02:45:48.785Z,38.60
2023-05-09T02:46:48.747Z,38.61
2023-05-09T02:47:48.787Z,38.62
2023-05-09T02:48:48.724Z,38.62
2023-05-09T02:49:48.704Z,38.61
2023-05-09T02:50:48.708Z,38.61
2023-05-09T02:51:48.696Z,38.63
2023-05-09T02:52:48.690Z,38.60
2023-05-09T02:53:48.691Z,38.63
2023-05-09T02:54:48.707Z,38.61
2023-05-09T02:55:48.682Z,38.59
2023-05-09T02:56:48.682Z,38.61
2023-05-09T02:57:51.880Z,38.60
2023-05-09T02:58:49.639Z,38.65
2023-05-09T02:59:48.727Z,38.63
2023-05-09T03:00:48.633Z,38.61
2023-05-09T03:01:48.647Z,38.60
2023-05-09T03:02:48.671Z,38.59
2023-05-09T03:03:48.808Z,38.61
2023-05-09T03:04:48.615Z,38.61
2023-05-09T03:05:48.598Z,38.59
2023-05-09T03:06:48.609Z,38.60
2023-05-09T03:07:48.609Z,38.59
2023-05-09T03:08:48.592Z,38.59
2023-05-09T03:09:48.611Z,38.58
2023-05-09T03:10:48.556Z,38.56
2023-05-09T03:11:48.533Z,38.60
2023-05-09T03:12:48.570Z,38.58
2023-05-09T03:13:48.573Z,38.61
2023-05-09T03:14:48.564Z,38.59
2023-05-09T03:15:48.655Z,38.60
2023-05-09T03:16:48.508Z,38.58
2023-05-09T03:17:48.568Z,38.56
2023-05-09T03:18:48.498Z,38.58
2023-05-09T03:19:48.491Z,38.57
2023-05-09T03:20:48.504Z,38.58
2023-05-09T03:21:48.491Z,38.56
2023-05-09T03:22:48.548Z,38.57
2023-05-09T03:23:48.503Z,38.56
2023-05-09T03:24:48.465Z,38.56
2023-05-09T03:25:48.488Z,38.56
2023-05-09T03:26:48.469Z,38.57
2023-05-09T03:27:48.475Z,38.57
2023-05-09T03:28:48.461Z,38.55
2023-05-09T03:29:48.438Z,38.55
2023-05-09T03:30:48.485Z,38.54
2023-05-09T03:31:48.636Z,38.56
2023-05-09T03:32:48.484Z,38.55
2023-05-09T03:33:48.444Z,38.56
2023-05-09T03:34:48.402Z,38.56
2023-05-09T03:35:48.420Z,38.52
2023-05-09T03:36:48.417Z,38.53
2023-05-09T03:37:48.419Z,38.56
2023-05-09T03:38:48.382Z,38.54
2023-05-09T03:39:48.369Z,38.55
2023-05-09T03:40:48.397Z,38.54
2023-05-09T03:41:48.356Z,38.57
2023-05-09T03:42:48.364Z,38.53
2023-05-09T03:43:48.343Z,38.56
2023-05-09T03:44:48.337Z,38.54
2023-05-09T03:45:48.336Z,38.56
2023-05-09T03:46:48.346Z,38.57
2023-05-09T03:47:48.449Z,38.55
2023-05-09T03:48:48.316Z,38.56
2023-05-09T03:49:48.324Z,38.57
2023-05-09T03:50:48.305Z,38.60
2023-05-09T03:51:48.315Z,38.56
2023-05-09T03:52:48.311Z,38.56
2023-05-09T03:53:48.311Z,38.57
2023-05-09T03:54:48.267Z,38.56
2023-05-09T03:55:48.275Z,38.57
2023-05-09T03:56:48.270Z,38.57
2023-05-09T03:57:48.249Z,38.55
2023-05-09T03:58:48.248Z,38.54
2023-05-09T03:59:48.236Z,38.58
2023-05-09T04:00:48.237Z,38.56
2023-05-09T04:01:48.282Z,38.55
2023-05-09T04:02:48.306Z,38.56
2023-05-09T04:03:48.350Z,38.55
2023-05-09T04:04:48.206Z,38.53
2023-05-09T04:05:48.175Z,38.54
2023-05-09T04:06:48.176Z,38.55
2023-05-09T04:07:48.173Z,38.53
2023-05-09T04:08:48.168Z,38.57
2023-05-09T04:09:48.157Z,38.55
2023-05-09T04:10:48.167Z,38.56
2023-05-09T04:11:48.176Z,38.56
2023-05-09T04:12:48.197Z,38.54
2023-05-09T04:13:48.118Z,38.52
2023-05-09T04:14:49.196Z,38.54
2023-05-09T04:15:48.147Z,38.53
2023-05-09T04:16:48.154Z,38.54
2023-05-09T04:17:48.171Z,38.55
2023-05-09T04:18:48.145Z,38.54
2023-05-09T04:19:48.173Z,38.52
2023-05-09T04:20:48.085Z,38.53
2023-05-09T04:21:48.985Z,38.53
2023-05-09T04:22:48.076Z,38.54
2023-05-09T04:23:48.050Z,38.54
2023-05-09T04:24:48.056Z,38.56
2023-05-09T04:25:48.163Z,38.54
2023-05-09T04:26:48.081Z,38.60
2023-05-09T04:27:48.076Z,38.55
2023-05-09T04:28:48.053Z,38.55
2023-05-09T04:29:48.059Z,38.55
2023-05-09T04:30:48.100Z,38.58
2023-05-09T04:31:48.288Z,38.59
2023-05-09T04:32:48.058Z,38.57
2023-05-09T04:33:48.022Z,38.54
2023-05-09T04:34:48.017Z,38.55
2023-05-09T04:35:48.106Z,38.54
2023-05-09T04:36:48.026Z,38.57
2023-05-09T04:37:48.000Z,38.54
2023-05-09T04:38:48.033Z,38.54
2023-05-09T04:39:48.030Z,38.51
2023-05-09T04:40:48.027Z,38.56
2023-05-09T04:41:48.040Z,38.52
2023-05-09T04:42:48.002Z,38.54
2023-05-09T04:43:48.033Z,38.52
2023-05-09T04:44:48.018Z,38.54
2023-05-09T04:45:48.048Z,38.53
2023-05-09T04:46:47.998Z,38.53
2023-05-09T04:47:48.062Z,38.53
2023-05-09T04:48:47.992Z,38.52
2023-05-09T04:49:48.003Z,38.54
2023-05-09T04:50:48.003Z,38.54
2023-05-09T04:51:48.075Z,38.54
2023-05-09T04:52:47.989Z,38.55
2023-05-09T04:53:48.004Z,38.53
2023-05-09T04:54:47.981Z,38.52
2023-05-09T04:55:48.010Z,38.52
2023-05-09T04:56:50.132Z,38.54
2023-05-09T04:57:48.269Z,38.55
2023-05-09T04:58:48.256Z,38.53
2023-05-09T04:59:48.223Z,38.53
2023-05-09T05:00:48.270Z,38.51
2023-05-09T05:01:55.776Z,38.50
2023-05-09T05:02:48.289Z,38.52
2023-05-09T05:03:48.247Z,38.49
2023-05-09T05:04:48.271Z,38.52
2023-05-09T05:05:48.389Z,38.50
2023-05-09T05:06:48.211Z,38.51
2023-05-09T05:07:48.312Z,38.50
2023-05-09T05:08:48.207Z,38.50
2023-05-09T05:09:48.211Z,38.50
2023-05-09T05:10:48.196Z,38.48
2023-05-09T05:11:59.521Z,38.48
2023-05-09T05:12:49.198Z,38.51
2023-05-09T05:13:48.148Z,38.51
2023-05-09T05:14:48.170Z,38.49
2023-05-09T05:15:48.242Z,38.49
2023-05-09T05:16:48.145Z,38.49
2023-05-09T05:17:48.161Z,38.49
2023-05-09T05:18:48.159Z,38.48
2023-05-09T05:19:48.145Z,38.50
2023-05-09T05:20:48.116Z,38.48
2023-05-09T05:21:48.119Z,38.46
2023-05-09T05:22:48.128Z,38.48
2023-05-09T05:23:48.190Z,38.48
2023-05-09T05:24:48.093Z,38.47
2023-05-09T05:25:48.086Z,38.46
2023-05-09T05:26:48.083Z,38.46
2023-05-09T05:27:48.081Z,38.47
2023-05-09T05:28:48.099Z,38.48
2023-05-09T05:29:49.067Z,38.48
2023-05-09T05:30:48.071Z,38.44
2023-05-09T05:31:48.616Z,38.45
2023-05-09T05:32:48.035Z,38.48
2023-05-09T05:33:48.013Z,38.50
2023-05-09T05:34:48.035Z,39.05
2023-05-09T05:35:48.239Z,39.58
2023-05-09T05:36:48.018Z,42.87
2023-05-09T05:37:49.110Z,42.03
2023-05-09T05:38:48.036Z,43.51
2023-05-09T05:39:48.080Z,44.36
2023-05-09T05:40:48.094Z,43.04
2023-05-09T05:41:48.182Z,41.66
2023-05-09T05:42:47.965Z,42.59
2023-05-09T05:43:47.958Z,42.41
2023-05-09T05:44:47.955Z,43.42
2023-05-09T05:45:55.018Z,43.95
2023-05-09T05:46:48.074Z,44.74
2023-05-09T05:47:47.969Z,44.13
2023-05-09T05:48:47.886Z,44.43
2023-05-09T05:49:47.903Z,44.23
2023-05-09T05:50:47.883Z,43.53
2023-05-09T05:51:47.918Z,43.80
2023-05-09T05:52:47.900Z,44.25
2023-05-09T05:53:47.868Z,46.05
2023-05-09T05:54:47.877Z,44.78
2023-05-09T05:55:47.954Z,44.95
2023-05-09T05:56:47.889Z,44.37
2023-05-09T05:57:47.878Z,44.41
2023-05-09T05:58:47.837Z,44.93
2023-05-09T05:59:47.842Z,44.96
2023-05-09T06:00:47.816Z,44.05
2023-05-09T06:01:47.869Z,44.27
2023-05-09T06:02:48.159Z,44.93
2023-05-09T06:03:47.888Z,44.41
2023-05-09T06:04:47.848Z,44.03
2023-05-09T06:05:47.793Z,45.40
2023-05-09T06:06:47.809Z,45.03
2023-05-09T06:07:48.098Z,46.60
2023-05-09T06:08:47.826Z,45.21
2023-05-09T06:09:47.803Z,44.37
2023-05-09T06:10:47.750Z,44.20
2023-05-09T06:11:47.855Z,44.08
2023-05-09T06:12:47.764Z,43.56
2023-05-09T06:13:47.821Z,42.89
2023-05-09T06:14:47.841Z,42.53
2023-05-09T06:15:47.913Z,42.96
2023-05-09T06:16:47.985Z,43.11
2023-05-09T06:17:48.079Z,42.93
2023-05-09T06:18:48.096Z,43.58
2023-05-09T06:19:48.152Z,43.37
2023-05-09T06:20:48.204Z,43.34
2023-05-09T06:21:48.274Z,43.52
2023-05-09T06:22:48.330Z,43.41
2023-05-09T06:24:04.999Z,42.77
2023-05-09T06:24:49.393Z,43.52
2023-05-09T06:25:48.364Z,43.69
2023-05-09T06:26:48.346Z,43.66
2023-05-09T06:27:48.608Z,43.14
2023-05-09T06:28:48.367Z,43.81
2023-05-09T06:29:48.325Z,44.61
2023-05-09T06:30:48.340Z,44.14
2023-05-09T06:31:48.384Z,43.97
2023-05-09T06:32:48.365Z,43.55
2023-05-09T06:33:48.363Z,43.61
2023-05-09T06:34:48.375Z,43.06
2023-05-09T06:35:48.387Z,42.65
2023-05-09T06:36:48.437Z,41.69
2023-05-09T06:37:49.188Z,41.72
2023-05-09T06:38:48.502Z,40.89
2023-05-09T06:39:48.572Z,40.61
2023-05-09T06:40:48.642Z,41.03
2023-05-09T06:41:48.670Z,40.72
2023-05-09T06:42:49.099Z,40.35
2023-05-09T06:43:50.015Z,40.72
2023-05-09T06:44:48.879Z,40.14
2023-05-09T06:45:48.930Z,40.28
2023-05-09T06:46:48.994Z,40.87
2023-05-09T06:47:49.636Z,40.25
2023-05-09T06:48:49.119Z,40.28
2023-05-09T06:49:49.155Z,40.20
2023-05-09T06:50:49.264Z,41.13
2023-05-09T06:51:49.271Z,40.61
2023-05-09T06:52:49.381Z,40.44
2023-05-09T06:53:49.389Z,40.26
2023-05-09T06:54:49.462Z,40.05
2023-05-09T06:55:49.497Z,40.17
2023-05-09T06:56:49.570Z,39.82
2023-05-09T06:57:50.094Z,39.95
2023-05-09T06:58:49.652Z,40.14
2023-05-09T06:59:49.702Z,39.75
2023-05-09T07:00:49.647Z,40.03
2023-05-09T07:01:49.642Z,39.77
2023-05-09T07:02:50.144Z,39.78
2023-05-09T07:03:49.670Z,39.74
2023-05-09T07:04:49.714Z,39.73
2023-05-09T07:05:49.619Z,39.89
2023-05-09T07:06:49.635Z,39.84
2023-05-09T07:07:49.652Z,39.91
2023-05-09T07:08:49.635Z,39.93
2023-05-09T07:09:52.909Z,40.00
2023-05-09T07:10:50.593Z,40.05
2023-05-09T07:11:49.563Z,40.08
2023-05-09T07:12:49.612Z,40.47
2023-05-09T07:13:49.635Z,40.32
2023-05-09T07:14:49.574Z,40.30
2023-05-09T07:15:49.719Z,40.75
2023-05-09T07:16:49.603Z,40.35
2023-05-09T07:17:49.602Z,40.37
2023-05-09T07:18:49.528Z,40.44
2023-05-09T07:19:49.503Z,40.33
2023-05-09T07:20:49.545Z,40.45
2023-05-09T07:21:49.526Z,40.35
2023-05-09T07:22:49.565Z,40.34
2023-05-09T07:23:49.501Z,40.37
2023-05-09T07:24:49.514Z,40.38
2023-05-09T07:25:49.499Z,40.37
2023-05-09T07:26:49.464Z,40.40
2023-05-09T07:27:49.478Z,41.85
2023-05-09T07:28:49.463Z,41.79
2023-05-09T07:29:49.426Z,41.43
2023-05-09T07:30:49.442Z,41.03
2023-05-09T07:31:49.537Z,41.36
2023-05-09T07:32:49.426Z,41.18
2023-05-09T07:33:49.640Z,41.45
2023-05-09T07:34:49.418Z,41.96
2023-05-09T07:35:49.429Z,41.78
2023-05-09T07:36:49.413Z,41.85
2023-05-09T07:37:49.412Z,41.43
2023-05-09T07:38:49.605Z,41.60
2023-05-09T07:39:49.452Z,41.61
2023-05-09T07:40:49.479Z,41.19
2023-05-09T07:41:49.525Z,41.39
2023-05-09T07:42:56.115Z,41.34
2023-05-09T07:43:49.641Z,41.16
2023-05-09T07:44:49.555Z,41.17
2023-05-09T07:45:49.557Z,41.16
2023-05-09T07:46:49.565Z,42.13
2023-05-09T07:47:49.682Z,42.02
2023-05-09T07:48:49.508Z,41.87
2023-05-09T07:49:49.496Z,41.92
2023-05-09T07:50:49.520Z,41.74
2023-05-09T07:51:49.493Z,41.18
2023-05-09T07:52:49.495Z,41.15
2023-05-09T07:53:49.599Z,41.10
2023-05-09T07:54:49.521Z,40.05
2023-05-09T07:55:49.466Z,42.26
2023-05-09T07:56:49.468Z,40.50
2023-05-09T07:57:49.475Z,40.87
2023-05-09T07:58:49.457Z,41.19
2023-05-09T07:59:49.450Z,40.25
2023-05-09T08:00:49.438Z,40.01
2023-05-09T08:01:49.415Z,40.02
2023-05-09T08:02:49.494Z,40.63
2023-05-09T08:03:49.709Z,41.60
2023-05-09T08:04:49.414Z,41.22
2023-05-09T08:05:49.421Z,41.30
2023-05-09T08:06:49.386Z,40.61
2023-05-09T08:07:49.525Z,40.95
2023-05-09T08:08:49.351Z,40.37
2023-05-09T08:09:49.366Z,40.64
2023-05-09T08:10:49.424Z,40.49
2023-05-09T08:11:49.400Z,40.73
2023-05-09T08:12:49.406Z,40.67
2023-05-09T08:13:49.369Z,40.35
2023-05-09T08:14:49.332Z,40.79
2023-05-09T08:15:49.396Z,40.63
2023-05-09T08:16:49.365Z,40.42
2023-05-09T08:17:49.403Z,40.55
2023-05-09T08:18:49.665Z,40.87
2023-05-09T08:19:49.403Z,41.34
2023-05-09T08:20:49.322Z,41.39
2023-05-09T08:21:49.295Z,41.33
2023-05-09T08:22:49.295Z,41.22
2023-05-09T08:23:49.658Z,41.34
2023-05-09T08:24:49.343Z,42.70
2023-05-09T08:25:49.371Z,42.77
2023-05-09T08:26:49.389Z,42.55
2023-05-09T08:27:50.127Z,41.81
2023-05-09T08:28:49.438Z,41.54
2023-05-09T08:29:49.495Z,41.82
2023-05-09T08:30:49.538Z,42.34
2023-05-09T08:31:49.645Z,40.99
2023-05-09T08:32:49.683Z,41.10
2023-05-09T08:33:49.640Z,40.82
2023-05-09T08:34:49.597Z,40.42
2023-05-09T08:35:49.741Z,40.60
2023-05-09T08:36:49.709Z,40.25
2023-05-09T08:37:49.720Z,40.41
2023-05-09T08:38:50.161Z,40.52
2023-05-09T08:39:49.885Z,40.47
2023-05-09T08:40:49.860Z,40.55
2023-05-09T08:41:49.900Z,40.37
2023-05-09T08:42:49.950Z,40.55
2023-05-09T08:43:50.030Z,40.40
2023-05-09T08:44:50.052Z,40.36
2023-05-09T08:45:50.112Z,40.33
2023-05-09T08:46:50.175Z,40.35
2023-05-09T08:47:50.266Z,40.38
2023-05-09T08:48:50.301Z,40.34
2023-05-09T08:49:50.352Z,40.34
2023-05-09T08:50:50.453Z,40.52
2023-05-09T08:51:50.668Z,41.84
2023-05-09T08:52:50.479Z,41.86
2023-05-09T08:53:50.492Z,41.38
2023-05-09T08:54:50.628Z,40.45
2023-05-09T08:55:50.682Z,39.65
2023-05-09T08:56:50.735Z,39.44
2023-05-09T08:57:50.745Z,39.20
2023-05-09T08:58:50.772Z,39.14
2023-05-09T08:59:50.878Z,39.50
2023-05-09T09:00:50.937Z,39.45
2023-05-09T09:01:50.978Z,39.73
2023-05-09T09:02:51.052Z,39.49
2023-05-09T09:03:51.153Z,39.37
2023-05-09T09:04:51.260Z,40.87
2023-05-09T09:05:51.315Z,41.42
2023-05-09T09:06:51.339Z,40.74
2023-05-09T09:07:51.387Z,40.66
2023-05-09T09:08:51.446Z,40.69
2023-05-09T09:09:51.520Z,40.35
2023-05-09T09:10:51.547Z,40.59
2023-05-09T09:11:51.622Z,40.50
2023-05-09T09:12:51.674Z,40.11
2023-05-09T09:13:51.737Z,39.62
2023-05-09T09:14:51.746Z,39.51
2023-05-09T09:15:51.843Z,39.44
2023-05-09T09:16:51.951Z,39.84
2023-05-09T09:17:52.023Z,39.58
2023-05-09T09:18:51.968Z,40.18
2023-05-09T09:19:52.185Z,39.42
2023-05-09T09:20:52.174Z,40.73
2023-05-09T09:21:53.086Z,41.37
2023-05-09T09:22:52.106Z,39.37
2023-05-09T09:23:52.202Z,39.79
2023-05-09T09:24:52.066Z,39.68
2023-05-09T09:25:52.054Z,39.46
2023-05-09T09:26:52.058Z,39.39
2023-05-09T09:27:52.058Z,38.99
2023-05-09T09:28:52.048Z,38.84
2023-05-09T09:29:52.137Z,38.73
2023-05-09T09:30:52.138Z,38.91
2023-05-09T09:31:52.376Z,39.02
2023-05-09T09:32:52.319Z,38.66
2023-05-09T09:33:52.343Z,38.33
2023-05-09T09:34:52.651Z,38.34
2023-05-09T09:35:52.457Z,38.18
2023-05-09T09:36:52.512Z,38.45
2023-05-09T09:37:52.580Z,38.09
2023-05-09T09:38:52.632Z,38.15
2023-05-09T09:39:53.295Z,38.37
2023-05-09T09:40:52.762Z,39.19
2023-05-09T09:41:52.828Z,39.35
2023-05-09T09:42:52.865Z,39.37
2023-05-09T09:43:52.927Z,39.71
2023-05-09T09:44:53.156Z,40.06
2023-05-09T09:45:53.111Z,40.58
2023-05-09T09:46:53.092Z,40.30
2023-05-09T09:47:53.199Z,39.43
2023-05-09T09:48:53.256Z,38.94
2023-05-09T09:49:53.277Z,38.78
2023-05-09T09:50:53.272Z,38.63
2023-05-09T09:51:53.391Z,38.20
2023-05-09T09:52:53.451Z,38.24
2023-05-09T09:53:53.564Z,38.37
2023-05-09T09:54:53.517Z,38.40
2023-05-09T09:55:53.632Z,38.06
2023-05-09T09:56:53.628Z,38.42
2023-05-09T09:57:53.682Z,38.75
2023-05-09T09:58:53.741Z,38.51
2023-05-09T09:59:53.805Z,38.06
2023-05-09T10:00:54.214Z,38.87
2023-05-09T10:01:53.911Z,38.77
2023-05-09T10:02:53.998Z,38.33
2023-05-09T10:03:54.068Z,38.24
2023-05-09T10:04:54.085Z,38.52
2023-05-09T10:05:54.098Z,38.35
2023-05-09T10:06:54.134Z,38.61
2023-05-09T10:07:54.171Z,38.59
2023-05-09T10:08:54.227Z,38.59
2023-05-09T10:09:54.320Z,39.07
2023-05-09T10:10:54.383Z,39.07
2023-05-09T10:11:54.494Z,38.43
2023-05-09T10:12:54.457Z,38.32
2023-05-09T10:13:54.461Z,38.75
2023-05-09T10:14:54.668Z,38.38
2023-05-09T10:15:54.637Z,38.89
2023-05-09T10:16:54.597Z,38.36
2023-05-09T10:17:54.873Z,38.62
2023-05-09T10:18:54.603Z,38.35
2023-05-09T10:19:54.650Z,38.82
2023-05-09T10:20:54.664Z,37.56
2023-05-09T10:21:54.682Z,39.32
2023-05-09T10:22:54.763Z,37.86
2023-05-09T10:23:54.762Z,38.70
2023-05-09T10:24:56.937Z,37.93
2023-05-09T10:25:54.896Z,38.25
2023-05-09T10:26:54.813Z,37.74
2023-05-09T10:27:54.873Z,37.89
2023-05-09T10:28:54.807Z,38.65
2023-05-09T10:29:54.811Z,38.13
2023-05-09T10:30:54.805Z,37.91
2023-05-09T10:31:54.902Z,37.84
2023-05-09T10:32:54.883Z,38.26
2023-05-09T10:33:54.746Z,37.19
2023-05-09T10:34:54.756Z,37.18
2023-05-09T10:35:55.170Z,37.98
2023-05-09T10:36:54.791Z,37.82
2023-05-09T10:37:54.728Z,37.75
2023-05-09T10:38:54.766Z,37.83
2023-05-09T10:39:54.738Z,38.06
2023-05-09T10:40:55.183Z,38.49
2023-05-09T10:41:54.709Z,38.15
2023-05-09T10:42:54.726Z,38.19
2023-05-09T10:43:54.783Z,37.90
2023-05-09T10:44:54.733Z,37.99
2023-05-09T10:45:54.676Z,37.65
2023-05-09T10:46:54.766Z,37.22
2023-05-09T10:47:54.672Z,37.37
2023-05-09T10:48:54.666Z,36.31
2023-05-09T10:49:54.661Z,35.78
2023-05-09T10:50:54.638Z,35.65
2023-05-09T10:51:54.619Z,35.48
2023-05-09T10:52:54.628Z,35.39
2023-05-09T10:53:54.628Z,35.73
2023-05-09T10:54:54.651Z,35.40
2023-05-09T10:55:54.713Z,35.91
2023-05-09T10:56:54.579Z,35.58
2023-05-09T10:57:54.581Z,36.21
2023-05-09T10:58:54.600Z,36.25
2023-05-09T10:59:54.678Z,35.85
2023-05-09T11:00:55.382Z,36.34
2023-05-09T11:01:54.662Z,36.18
2023-05-09T11:02:54.808Z,36.24
2023-05-09T11:03:54.721Z,36.25
2023-05-09T11:04:54.744Z,36.49
2023-05-09T11:05:55.270Z,35.93
2023-05-09T11:07:54.833Z,35.81
2023-05-09T11:08:54.843Z,36.53
2023-05-09T11:09:54.922Z,35.62
2023-05-09T11:10:54.910Z,35.66
2023-05-09T11:11:54.930Z,35.46
2023-05-09T11:12:57.559Z,35.42
2023-05-09T11:13:54.957Z,35.72
2023-05-09T11:14:54.948Z,34.87
2023-05-09T11:15:55.050Z,35.58
2023-05-09T11:16:54.897Z,34.98
2023-05-09T11:17:54.993Z,34.84
2023-05-09T11:18:54.899Z,35.18
2023-05-09T11:19:54.918Z,35.56
2023-05-09T11:20:54.916Z,36.06
2023-05-09T11:21:54.878Z,35.69
2023-05-09T11:22:54.892Z,34.85
2023-05-09T11:23:55.362Z,35.09
2023-05-09T11:24:54.877Z,35.79
2023-05-09T11:25:54.883Z,34.65
2023-05-09T11:26:54.857Z,34.76
2023-05-09T11:27:54.869Z,35.09
2023-05-09T11:28:54.833Z,34.56
2023-05-09T11:29:54.854Z,34.74
2023-05-09T11:30:56.074Z,35.33
2023-05-09T11:31:54.957Z,35.01
2023-05-09T11:32:54.885Z,35.31
2023-05-09T11:33:55.156Z,35.36
2023-05-09T11:34:54.835Z,35.40
2023-05-09T11:35:55.302Z,35.45
2023-05-09T11:36:56.135Z,35.44
2023-05-09T11:37:54.838Z,35.40
2023-05-09T11:38:54.774Z,35.28
2023-05-09T11:39:54.805Z,35.43
2023-05-09T11:40:54.806Z,35.50
2023-05-09T11:41:54.791Z,35.50
2023-05-09T11:42:57.780Z,35.54
2023-05-09T11:43:54.745Z,35.61
2023-05-09T11:44:54.738Z,35.63
2023-05-09T11:45:54.775Z,35.67
2023-05-09T11:46:54.720Z,35.71
2023-05-09T11:47:54.871Z,35.71
2023-05-09T11:48:54.751Z,35.73
2023-05-09T11:49:54.714Z,35.44
2023-05-09T11:50:54.775Z,35.09
2023-05-09T11:51:54.688Z,35.09
2023-05-09T11:52:54.681Z,35.04
2023-05-09T11:53:54.679Z,35.20
2023-05-09T11:54:54.650Z,35.29
2023-05-09T11:55:54.718Z,35.40
2023-05-09T11:56:54.666Z,35.41
2023-05-09T11:57:54.732Z,35.37
2023-05-09T11:58:54.629Z,35.26
2023-05-09T11:59:54.640Z,35.23
2023-05-09T12:00:54.608Z,35.28
2023-05-09T12:01:54.626Z,35.09
2023-05-09T12:02:54.710Z,35.03
2023-05-09T12:03:54.834Z,34.92
2023-05-09T12:04:54.603Z,34.86
2023-05-09T12:05:54.573Z,34.77
2023-05-09T12:06:54.578Z,34.70
2023-05-09T12:07:54.589Z,34.77
2023-05-09T12:08:54.572Z,34.86
2023-05-09T12:09:54.613Z,34.59
2023-05-09T12:10:54.560Z,34.69
2023-05-09T12:11:54.548Z,34.39
2023-05-09T12:12:54.562Z,34.67
2023-05-09T12:13:54.525Z,34.79
2023-05-09T12:14:54.545Z,34.60
2023-05-09T12:15:54.531Z,34.46
2023-05-09T12:16:54.531Z,34.58
2023-05-09T12:17:54.583Z,34.59
2023-05-09T12:18:54.497Z,34.41
2023-05-09T12:19:54.631Z,34.37
2023-05-09T12:20:54.480Z,34.50
2023-05-09T12:21:54.488Z,34.57
2023-05-09T12:22:54.460Z,34.48
2023-05-09T12:23:54.461Z,34.57
2023-05-09T12:24:54.482Z,34.44
2023-05-09T12:25:54.455Z,34.46
2023-05-09T12:26:54.461Z,34.38
2023-05-09T12:27:54.512Z,34.08
2023-05-09T12:28:54.410Z,34.11
2023-05-09T12:29:55.081Z,34.14
2023-05-09T12:30:54.486Z,33.52
2023-05-09T12:31:54.560Z,33.24
2023-05-09T12:32:54.577Z,33.29
2023-05-09T12:33:54.626Z,33.56
2023-05-09T12:34:54.649Z,33.71
2023-05-09T12:35:54.775Z,33.82
2023-05-09T12:36:54.738Z,33.87
2023-05-09T12:37:54.775Z,33.88
2023-05-09T12:38:54.804Z,33.69
2023-05-09T12:39:54.807Z,33.58
2023-05-09T12:40:54.850Z,33.50
2023-05-09T12:42:01.657Z,33.22
2023-05-09T12:42:55.987Z,33.33
2023-05-09T12:43:54.881Z,33.30
2023-05-09T12:44:54.862Z,33.16
2023-05-09T12:45:54.874Z,33.22
2023-05-09T12:46:54.926Z,33.37
2023-05-09T12:47:54.879Z,33.07
2023-05-09T12:48:54.855Z,33.11
2023-05-09T12:49:54.865Z,33.19
2023-05-09T12:50:54.829Z,33.14
2023-05-09T12:51:54.964Z,33.14
2023-05-09T12:53:03.408Z,33.43
2023-05-09T12:53:55.841Z,33.70